.
WxDataArchive / Data Records for 2014-03-08
2014-03-07 March 2014 2014-03-09

Data Records for Saturday, 08 March 2014

Time	Temp	Chill	HIndex	Humid	Dewpt	 Wind 	HiWind	WindDir	Rain 	Barom
-----	----	-----	------	-----	-----	------	------	-------	-----	-----
00:00	32.2	32.2	32.2	83	27.6	0	0	---	0.00	29.944 
00:05	32.1	32.1	32.1	83	27.5	0	0	---	0.00	29.944 
00:10	32.1	32.1	32.1	83	27.5	0	0	---	0.00	29.944 
00:15	32.2	32.2	32.2	84	27.9	0	0	---	0.00	29.941 
00:20	32.4	32.4	32.4	84	28.1	0	0	---	0.00	29.941 
00:25	32.7	32.7	32.7	84	28.4	0	0	---	0.00	29.941 
00:30	32.9	32.9	32.9	85	28.9	0	0	---	0.00	29.943 
00:35	33.4	33.4	33.4	85	29.4	0	0	---	0.00	29.943 
00:40	33.8	33.8	33.8	85	29.8	0	0	---	0.00	29.943 
00:45	33.8	33.8	33.8	84	29.5	0	0	---	0.00	29.938 
00:50	33.8	33.8	33.8	84	29.5	0	0	---	0.00	29.938 
00:55	33.7	33.7	33.7	84	29.4	0	0	---	0.00	29.938 
01:00	33.7	33.7	33.7	84	29.4	0	0	---	0.00	29.939 
01:05	33.7	33.7	33.7	84	29.4	0	0	---	0.00	29.939 
01:10	33.8	33.8	33.8	85	29.8	0	0	---	0.00	29.939 
01:15	34.1	34.1	34.1	85	30.1	0	0	---	0.00	29.938 
01:20	34.4	34.4	34.4	84	30.1	0	0	---	0.00	29.938 
01:25	34.6	34.6	34.6	84	30.3	0	0	---	0.00	29.938 
01:30	34.6	34.6	34.6	84	30.3	0	0	---	0.00	29.934 
01:35	34.7	34.7	34.7	84	30.4	0	0	---	0.00	29.934 
01:40	34.7	34.7	34.7	84	30.4	0	1	248	0.00	29.934 
01:45	35.0	35.0	35.0	84	30.7	0	1	248	0.00	29.934 
01:50	35.3	35.3	35.3	84	31.0	0	0	---	0.00	29.934 
01:55	35.5	35.5	35.5	83	30.9	0	0	---	0.00	29.934 
02:00	35.8	35.8	35.8	83	31.2	0	0	---	0.00	29.932 
02:05	36.2	36.2	36.2	82	31.2	0	0	---	0.00	29.932 
02:10	36.5	36.5	36.5	81	31.2	0	1	248	0.00	29.932 
02:15	36.9	36.9	36.9	80	31.3	0	1	248	0.00	29.927 
02:20	37.3	37.3	37.3	79	31.4	0	1	248	0.00	29.927 
02:25	37.8	37.8	37.8	77	31.2	0	1	248	0.00	29.927 
02:30	38.0	38.0	38.0	77	31.4	0	1	248	0.00	29.923 
02:35	38.2	38.2	38.2	76	31.3	0	1	248	0.00	29.923 
02:40	38.0	38.0	38.0	75	30.8	0	1	248	0.00	29.923 
02:45	38.0	38.0	38.0	75	30.8	0	0	---	0.00	29.922 
02:50	37.9	37.9	37.9	75	30.7	0	0	---	0.00	29.922 
02:55	37.8	37.8	37.8	75	30.6	0	0	---	0.00	29.922 
03:00	37.6	37.6	37.6	75	30.4	0	0	---	0.00	29.924 
03:05	37.5	37.5	37.5	76	30.6	0	0	---	0.00	29.924 
03:10	37.3	37.3	37.3	76	30.4	0	0	---	0.00	29.924 
03:15	37.2	37.2	37.2	76	30.3	0	0	---	0.00	29.927 
03:20	37.2	37.2	37.2	77	30.7	0	0	---	0.00	29.927 
03:25	37.0	37.0	37.0	77	30.5	0	0	---	0.00	29.927 
03:30	37.2	37.2	37.2	77	30.7	0	1	248	0.00	29.931 
03:35	37.3	37.3	37.3	76	30.4	0	1	248	0.00	29.931 
03:40	37.5	37.5	37.5	76	30.6	0	1	248	0.00	29.931 
03:45	37.5	37.5	37.5	75	30.3	0	0	---	0.00	29.926 
03:50	37.6	37.6	37.6	75	30.4	0	1	248	0.00	29.926 
03:55	37.8	37.8	37.8	75	30.6	0	1	248	0.00	29.926 
04:00	37.8	37.8	37.8	74	30.3	0	0	---	0.00	29.930 
04:05	37.8	37.8	37.8	74	30.3	0	1	248	0.00	29.930 
04:10	37.8	37.8	37.8	74	30.3	0	0	---	0.00	29.930 
04:15	37.6	37.6	37.6	74	30.1	0	0	---	0.00	29.929 
04:20	37.6	37.6	37.6	74	30.1	0	0	---	0.00	29.929 
04:25	37.5	37.5	37.5	74	30.0	0	0	---	0.00	29.929 
04:30	37.3	37.3	37.3	75	30.1	0	0	---	0.00	29.937 
04:35	37.2	37.2	37.2	75	30.0	0	0	---	0.00	29.937 
04:40	37.0	37.0	37.0	75	29.8	0	0	---	0.00	29.937 
04:45	36.9	36.9	36.9	76	30.1	0	0	---	0.00	29.940 
04:50	36.9	36.9	36.9	76	30.1	0	0	---	0.00	29.940 
04:55	36.8	36.8	36.8	76	30.0	0	0	---	0.00	29.940 
05:00	36.6	36.6	36.6	77	30.1	0	0	---	0.00	29.943 
05:05	36.3	36.3	36.3	77	29.8	0	0	---	0.00	29.943 
05:10	36.2	36.2	36.2	77	29.7	0	0	---	0.00	29.943 
05:15	36.0	36.0	36.0	78	29.8	0	0	---	0.00	29.959 
05:20	35.9	35.9	35.9	78	29.7	0	0	---	0.00	29.959 
05:25	36.0	36.0	36.0	79	30.1	0	1	248	0.00	29.959 
05:30	36.2	36.2	36.2	79	30.3	0	1	248	0.00	29.961 
05:35	36.2	36.2	36.2	79	30.3	0	1	248	0.00	29.961 
05:40	36.2	36.2	36.2	79	30.3	0	1	248	0.00	29.961 
05:45	36.2	36.2	36.2	79	30.3	0	0	---	0.00	29.971 
05:50	36.0	36.0	36.0	79	30.1	0	0	---	0.00	29.971 
05:55	35.9	35.9	35.9	79	30.0	0	0	---	0.00	29.971 
06:00	35.8	35.8	35.8	80	30.2	0	0	---	0.00	29.978 
06:05	35.6	35.6	35.6	80	30.1	0	0	---	0.00	29.978 
06:10	35.3	35.3	35.3	80	29.8	0	0	---	0.00	29.978 
06:15	35.2	35.2	35.2	81	30.0	0	0	---	0.00	29.994 
06:20	35.0	35.0	35.0	81	29.8	0	1	248	0.00	29.994 
06:25	34.9	34.9	34.9	81	29.7	0	0	---	0.00	29.994 
06:30	34.9	34.9	34.9	82	30.0	0	0	---	0.00	29.996 
06:35	34.7	34.7	34.7	82	29.8	0	0	---	0.00	29.996 
06:40	34.6	34.6	34.6	82	29.7	0	0	---	0.00	29.996 
06:45	34.4	34.4	34.4	83	29.8	0	0	---	0.00	29.998 
06:50	34.3	34.3	34.3	83	29.7	0	0	---	0.00	29.998 
06:55	34.1	34.1	34.1	83	29.5	0	0	---	0.00	29.998 
07:00	33.8	33.8	33.8	83	29.2	0	0	---	0.00	30.003 
07:05	33.7	33.7	33.7	84	29.4	0	0	---	0.00	30.003 
07:10	33.7	33.7	33.7	84	29.4	0	0	---	0.00	30.003 
07:15	33.5	33.5	33.5	84	29.2	0	0	---	0.00	30.015 
07:20	33.4	33.4	33.4	84	29.1	0	0	---	0.00	30.015 
07:25	33.4	33.4	33.4	84	29.1	0	0	---	0.00	30.015 
07:30	33.4	33.4	33.4	85	29.4	0	0	---	0.00	30.020 
07:35	33.4	33.4	33.4	85	29.4	0	0	---	0.00	30.020 
07:40	33.5	33.5	33.5	85	29.5	0	0	---	0.00	30.020 
07:45	33.7	33.7	33.7	85	29.7	0	0	---	0.00	30.029 
07:50	34.0	34.0	34.0	86	30.3	0	0	---	0.00	30.029 
07:55	34.3	34.3	34.3	86	30.6	0	0	---	0.00	30.029 
08:00	34.6	34.6	34.6	86	30.9	0	0	---	0.00	30.035 
08:05	34.9	34.9	34.9	86	31.1	0	0	---	0.00	30.035 
08:10	35.2	35.2	35.2	86	31.4	0	0	---	0.00	30.035 
08:15	35.5	35.5	35.5	85	31.4	0	0	---	0.00	30.044 
08:20	35.8	35.8	35.8	85	31.7	0	0	---	0.00	30.044 
08:25	36.0	36.0	36.0	84	31.6	0	2	248	0.00	30.044 
08:30	36.2	36.2	36.2	84	31.8	0	2	248	0.00	30.048 
08:35	36.3	36.3	36.3	83	31.6	0	2	248	0.00	30.048 
08:40	36.5	36.5	36.5	82	31.5	0	2	248	0.00	30.048 
08:45	36.5	36.5	36.5	81	31.2	1	3	248	0.00	30.050 
08:50	36.5	36.5	36.5	81	31.2	1	2	248	0.00	30.050 
08:55	36.6	36.6	36.6	81	31.3	1	3	248	0.00	30.050 
09:00	36.8	36.8	36.8	80	31.2	1	2	248	0.00	30.053 
09:05	36.8	36.8	36.8	80	31.2	1	4	248	0.00	30.053 
09:10	36.8	36.8	36.8	80	31.2	1	2	248	0.00	30.053 
09:15	36.8	36.8	36.8	80	31.2	1	2	248	0.00	30.061 
09:20	36.9	36.9	36.9	80	31.3	0	2	248	0.00	30.061 
09:25	36.9	36.9	36.9	79	31.0	0	1	248	0.00	30.061 
09:30	36.9	36.9	36.9	79	31.0	0	1	248	0.00	30.062 
09:35	36.9	36.9	36.9	79	31.0	1	4	248	0.00	30.062 
09:40	36.9	36.9	36.9	79	31.0	1	4	248	0.00	30.062 
09:45	36.8	36.8	36.8	79	30.9	0	3	248	0.00	30.067 
09:50	36.8	36.8	36.8	79	30.9	1	2	248	0.00	30.067 
09:55	36.6	36.6	36.6	79	30.7	1	3	248	0.00	30.067 
10:00	36.6	36.6	36.6	79	30.7	1	3	248	0.00	30.070 
10:05	36.6	36.6	36.6	80	31.0	1	3	248	0.00	30.070 
10:10	36.6	36.6	36.6	80	31.0	0	2	248	0.00	30.070 
10:15	36.6	36.6	36.6	80	31.0	0	3	248	0.00	30.067 
10:20	36.5	36.5	36.5	81	31.2	1	3	248	0.00	30.067 
10:25	36.3	36.3	36.3	82	31.3	1	3	248	0.00	30.067 
10:30	36.2	36.2	36.2	83	31.5	0	2	248	0.00	30.077 
10:35	36.2	36.2	36.2	83	31.5	0	2	248	0.00	30.077 
10:40	36.0	36.0	36.0	84	31.6	0	2	248	0.00	30.077 
10:45	35.9	35.9	35.9	84	31.5	0	2	248	0.00	30.081 
10:50	35.8	35.8	35.8	85	31.7	0	2	248	0.00	30.081 
10:55	35.8	35.8	35.8	85	31.7	0	3	248	0.01	30.081 
11:00	35.5	35.5	35.5	85	31.4	0	3	248	0.00	30.066 
11:05	35.3	35.3	35.3	86	31.5	0	1	248	0.00	30.066 
11:10	35.2	35.2	35.2	86	31.4	0	2	248	0.00	30.066 
11:15	35.2	35.2	35.2	87	31.7	0	2	248	0.00	30.067 
11:20	35.0	35.0	35.0	87	31.5	0	2	248	0.01	30.067 
11:25	35.0	35.0	35.0	88	31.8	1	2	248	0.00	30.067 
11:30	34.9	34.9	34.9	88	31.7	1	5	248	0.00	30.071 
11:35	34.7	34.7	34.7	88	31.5	1	3	248	0.00	30.071 
11:40	34.7	34.7	34.7	88	31.5	0	3	248	0.00	30.071 
11:45	34.6	34.6	34.6	89	31.7	0	3	248	0.00	30.087 
11:50	34.6	34.6	34.6	89	31.7	1	2	248	0.00	30.087 
11:55	34.4	34.4	34.4	89	31.5	0	2	248	0.00	30.087 
12:00	34.4	34.4	34.4	89	31.5	0	1	248	0.00	30.087 
12:05	34.4	34.4	34.4	90	31.8	0	1	248	0.01	30.087 
12:10	34.7	34.7	34.7	90	32.1	0	1	248	0.00	30.087 
12:15	34.9	34.9	34.9	90	32.3	0	2	248	0.00	30.082 
12:20	34.9	34.9	34.9	90	32.3	0	1	248	0.00	30.082 
12:25	34.9	34.9	34.9	90	32.3	0	2	248	0.00	30.082 
12:30	34.9	34.9	34.9	90	32.3	0	3	248	0.01	30.082 
12:35	34.9	34.9	34.9	90	32.3	0	2	248	0.00	30.082 
12:40	34.7	34.7	34.7	90	32.1	0	2	248	0.00	30.082 
12:45	34.7	34.7	34.7	90	32.1	0	3	248	0.00	30.083 
12:50	34.9	34.9	34.9	90	32.3	0	2	248	0.00	30.083 
12:55	34.9	34.9	34.9	90	32.3	0	1	248	0.00	30.083 
13:00	35.0	35.0	35.0	90	32.4	0	2	248	0.00	30.085 
13:05	34.9	34.9	34.9	90	32.3	0	2	248	0.00	30.085 
13:10	34.7	34.7	34.7	90	32.1	0	2	248	0.00	30.085 
13:15	34.6	34.6	34.6	90	32.0	0	3	248	0.00	30.079 
13:20	34.4	34.4	34.4	90	31.8	1	3	248	0.00	30.079 
13:25	34.3	34.3	34.3	89	31.4	1	3	248	0.00	30.079 
13:30	34.1	34.1	34.1	90	31.5	0	2	248	0.00	30.074 
13:35	34.1	34.1	34.1	90	31.5	0	2	248	0.00	30.074 
13:40	34.3	34.3	34.3	90	31.7	0	3	248	0.00	30.074 
13:45	34.4	34.4	34.4	90	31.8	0	1	248	0.00	30.079 
13:50	34.4	34.4	34.4	89	31.5	1	2	248	0.00	30.079 
13:55	34.3	34.3	34.3	89	31.4	0	2	248	0.00	30.079 
14:00	34.3	34.3	34.3	89	31.4	0	2	248	0.00	30.081 
14:05	34.1	34.1	34.1	89	31.2	1	2	248	0.00	30.081 
14:10	34.0	34.0	34.0	89	31.1	1	2	248	0.00	30.081 
14:15	34.0	34.0	34.0	89	31.1	0	2	248	0.00	30.091 
14:20	33.8	33.8	33.8	89	30.9	0	1	248	0.00	30.091 
14:25	33.8	33.8	33.8	89	30.9	0	2	248	0.00	30.091 
14:30	33.7	33.7	33.7	89	30.8	0	2	248	0.00	30.093 
14:35	33.7	33.7	33.7	89	30.8	0	1	248	0.00	30.093 
14:40	33.5	33.5	33.5	89	30.6	0	2	248	0.00	30.093 
14:45	33.7	33.7	33.7	89	30.8	0	1	248	0.01	30.087 
14:50	33.7	33.7	33.7	89	30.8	0	2	248	0.00	30.087 
14:55	33.7	33.7	33.7	89	30.8	0	2	248	0.00	30.087 
15:00	33.7	33.7	33.7	89	30.8	0	2	248	0.00	30.090 
15:05	33.5	33.5	33.5	89	30.6	1	3	248	0.00	30.090 
15:10	33.4	33.4	33.4	89	30.5	1	5	248	0.00	30.090 
15:15	33.4	33.4	33.4	89	30.5	0	2	248	0.00	30.094 
15:20	33.4	33.4	33.4	89	30.5	1	2	248	0.00	30.094 
15:25	33.4	33.4	33.4	89	30.5	1	3	248	0.00	30.094 
15:30	33.4	33.4	33.4	90	30.8	0	3	248	0.01	30.089 
15:35	33.5	33.5	33.5	90	30.9	0	2	248	0.00	30.089 
15:40	33.5	33.5	33.5	90	30.9	0	1	248	0.00	30.089 
15:45	33.5	33.5	33.5	90	30.9	0	2	248	0.00	30.089 
15:50	33.5	33.5	33.5	90	30.9	1	3	248	0.00	30.089 
15:55	33.4	33.4	33.4	89	30.5	0	2	248	0.00	30.089 
16:00	33.4	33.4	33.4	89	30.5	0	2	248	0.00	30.095 
16:05	33.4	33.4	33.4	89	30.5	1	3	248	0.00	30.095 
16:10	33.4	33.4	33.4	89	30.5	0	1	248	0.00	30.095 
16:15	33.5	33.5	33.5	90	30.9	0	2	248	0.00	30.093 
16:20	33.5	33.5	33.5	90	30.9	0	3	248	0.00	30.093 
16:25	33.4	33.4	33.4	89	30.5	1	4	248	0.01	30.093 
16:30	33.1	33.1	33.1	89	30.2	2	3	270	0.00	30.097 
16:35	32.8	32.8	32.8	89	29.9	1	4	270	0.00	30.097 
16:40	32.8	32.8	32.8	89	29.9	0	2	270	0.00	30.097 
16:45	32.9	32.9	32.9	89	30.0	0	1	270	0.00	30.097 
16:50	32.9	32.9	32.9	90	30.3	0	2	270	0.00	30.097 
16:55	32.8	32.8	32.8	89	29.9	1	3	270	0.00	30.097 
17:00	32.5	32.5	32.5	89	29.6	1	3	270	0.00	30.101 
17:05	32.4	32.4	32.4	89	29.5	1	2	270	0.00	30.101 
17:10	32.4	32.4	32.4	89	29.5	0	2	270	0.00	30.101 
17:15	32.4	32.4	32.4	89	29.5	0	1	270	0.00	30.104 
17:20	32.5	32.5	32.5	89	29.6	0	2	270	0.00	30.104 
17:25	32.5	32.5	32.5	89	29.6	0	1	270	0.00	30.104 
17:30	32.5	32.5	32.5	89	29.6	0	3	270	0.00	30.113 
17:35	32.4	32.4	32.4	89	29.5	1	4	270	0.00	30.113 
17:40	32.4	32.4	32.4	89	29.5	1	2	270	0.00	30.113 
17:45	32.5	32.5	32.5	89	29.6	0	2	270	0.00	30.116 
17:50	32.5	32.5	32.5	88	29.3	1	2	270	0.00	30.116 
17:55	32.5	32.5	32.5	88	29.3	0	1	270	0.00	30.116 
18:00	32.5	32.5	32.5	88	29.3	0	2	270	0.00	30.125 
18:05	32.5	32.5	32.5	88	29.3	1	3	270	0.00	30.125 
18:10	32.4	32.4	32.4	88	29.3	1	3	270	0.00	30.125 
18:15	32.4	32.4	32.4	88	29.3	0	3	270	0.00	30.134 
18:20	32.2	32.2	32.2	87	28.8	0	2	270	0.00	30.134 
18:25	32.2	32.2	32.2	86	28.5	0	2	270	0.00	30.134 
18:30	32.1	32.1	32.1	86	28.4	0	2	270	0.00	30.133 
18:35	32.1	32.1	32.1	86	28.4	0	1	270	0.00	30.133 
18:40	32.1	32.1	32.1	85	28.1	0	1	270	0.00	30.133 
18:45	32.1	32.1	32.1	85	28.1	0	1	270	0.00	30.138 
18:50	31.9	31.9	31.9	85	27.9	0	1	270	0.00	30.138 
18:55	31.9	31.9	31.9	85	27.9	0	1	270	0.00	30.138 
19:00	31.9	31.9	31.9	85	27.9	0	2	270	0.00	30.145 
19:05	31.9	31.9	31.9	85	27.9	0	1	270	0.00	30.145 
19:10	31.9	31.9	31.9	84	27.6	0	0	---	0.00	30.145 
19:15	31.9	31.9	31.9	84	27.6	0	0	---	0.00	30.146 
19:20	31.8	31.8	31.8	84	27.5	0	1	270	0.00	30.146 
19:25	31.8	31.8	31.8	84	27.5	0	0	---	0.00	30.146 
19:30	31.8	31.8	31.8	84	27.5	0	1	270	0.00	30.147 
19:35	31.8	31.8	31.8	84	27.5	0	0	---	0.00	30.147 
19:40	31.8	31.8	31.8	84	27.5	0	0	---	0.00	30.147 
19:45	31.8	31.8	31.8	84	27.5	0	0	---	0.00	30.151 
19:50	31.8	31.8	31.8	84	27.5	0	1	270	0.00	30.151 
19:55	31.6	31.6	31.6	84	27.3	0	1	270	0.00	30.151 
20:00	31.6	31.6	31.6	84	27.3	0	0	---	0.00	30.158 
20:05	31.6	31.6	31.6	83	27.0	0	0	---	0.00	30.158 
20:10	31.6	31.6	31.6	83	27.0	0	0	---	0.00	30.158 
20:15	31.6	31.6	31.6	83	27.0	0	0	---	0.00	30.153 
20:20	31.6	31.6	31.6	83	27.0	0	1	270	0.00	30.153 
20:25	31.6	31.6	31.6	83	27.0	0	0	---	0.00	30.153 
20:30	31.6	31.6	31.6	83	27.0	0	1	270	0.00	30.160 
20:35	31.6	31.6	31.6	83	27.0	0	0	---	0.00	30.160 
20:40	31.6	31.6	31.6	83	27.0	0	1	270	0.00	30.160 
20:45	31.6	31.6	31.6	82	26.7	0	1	270	0.00	30.162 
20:50	31.6	31.6	31.6	82	26.7	0	1	270	0.00	30.162 
20:55	31.6	31.6	31.6	82	26.7	0	1	270	0.00	30.162 
21:00	31.6	31.6	31.6	82	26.7	0	1	270	0.00	30.164 
21:05	31.6	31.6	31.6	82	26.7	0	1	270	0.00	30.164 
21:10	31.6	31.6	31.6	82	26.7	0	0	---	0.00	30.164 
21:15	31.5	31.5	31.5	82	26.7	0	0	---	0.00	30.167 
21:20	31.5	31.5	31.5	82	26.7	0	1	270	0.00	30.167 
21:25	31.5	31.5	31.5	82	26.7	0	0	---	0.00	30.167 
21:30	31.5	31.5	31.5	82	26.7	0	1	270	0.00	30.176 
21:35	31.5	31.5	31.5	82	26.7	1	3	270	0.00	30.176 
21:40	31.0	31.0	31.0	80	25.6	2	4	292	0.00	30.176 
21:45	30.7	30.7	30.7	78	24.7	2	7	292	0.00	30.178 
21:50	30.6	30.6	30.6	78	24.6	2	3	292	0.00	30.178 
21:55	30.3	30.3	30.3	78	24.3	2	5	315	0.00	30.178 
22:00	30.1	30.1	30.1	78	24.1	2	6	270	0.00	30.186 
22:05	30.0	30.0	30.0	78	24.0	1	4	270	0.00	30.186 
22:10	29.8	29.8	29.8	78	23.8	2	5	292	0.00	30.186 
22:15	29.5	29.5	29.5	78	23.5	2	5	270	0.00	30.190 
22:20	29.4	29.4	29.4	79	23.7	1	3	292	0.00	30.190 
22:25	29.3	29.3	29.3	79	23.6	2	4	315	0.00	30.190 
22:30	29.1	29.1	29.1	79	23.4	2	5	270	0.00	30.199 
22:35	28.8	28.8	28.8	78	22.8	3	6	315	0.00	30.199 
22:40	28.8	28.8	28.8	79	23.1	1	7	315	0.00	30.199 
22:45	28.7	28.7	28.7	79	23.0	2	5	315	0.00	30.207 
22:50	28.5	28.5	28.5	79	22.8	2	4	315	0.00	30.207 
22:55	28.2	28.2	28.2	78	22.2	3	6	315	0.00	30.207 
23:00	28.1	28.1	28.1	78	22.1	2	5	315	0.00	30.208 
23:05	28.1	28.1	28.1	78	22.1	2	5	270	0.00	30.208 
23:10	27.9	27.9	27.9	78	21.9	2	4	292	0.00	30.208 
23:15	27.9	27.9	27.9	78	21.9	1	3	292	0.00	30.209 
23:20	27.8	27.8	27.8	78	21.8	1	4	338	0.00	30.209 
23:25	27.6	27.6	27.6	78	21.7	2	5	292	0.00	30.209 
23:30	27.5	27.5	27.5	78	21.6	1	4	315	0.00	30.214 
23:35	27.5	27.5	27.5	78	21.6	2	4	292	0.00	30.214 
23:40	27.3	27.3	27.3	78	21.4	1	3	292	0.00	30.214 
23:45	27.3	27.3	27.3	78	21.4	1	4	292	0.00	30.217 
23:50	27.2	27.2	27.2	78	21.3	1	4	292	0.00	30.217 
23:55	27.0	27.0	27.0	78	21.1	1	3	292	0.00	30.217 

CoCoRaHS
IN-AL-39
A2 Web Hosting
Creative Commons License
GoDaddy
search engine by freefind advanced

loaded 2018-11-15 04:17:26 • last modified 2010-11-18 10:43:29
Privacy PolicyDisclaimer
• wx.awcolley.com is powered by PmWiki v.2002016 •
• all content (unless otherwise noted) © 2018 A W Colley